createdAt,value
2022-09-05T00:02:01.646Z,50.74
2022-09-05T00:04:29.314Z,50.34
2022-09-05T00:06:36.633Z,50.33
2022-09-05T00:08:46.165Z,50.97
2022-09-05T00:11:41.054Z,51.08
2022-09-05T00:13:57.403Z,51.02
2022-09-05T00:16:27.250Z,50.92
2022-09-05T00:23:52.943Z,50.76
2022-09-05T00:24:26.948Z,51.22
2022-09-05T00:25:00.738Z,51.15
2022-09-05T00:27:13.744Z,51.20
2022-09-05T00:30:32.057Z,51.35
2022-09-05T00:32:10.798Z,51.10
2022-09-05T00:34:25.717Z,51.07
2022-09-05T00:36:46.306Z,50.96
2022-09-05T00:39:04.167Z,51.05
2022-09-05T00:41:11.381Z,51.32
2022-09-05T00:43:25.097Z,51.74
2022-09-05T00:45:39.597Z,51.09
2022-09-05T00:47:55.327Z,51.45
2022-09-05T00:50:01.794Z,51.17
2022-09-05T00:52:24.644Z,51.55
2022-09-05T00:54:53.718Z,51.78
2022-09-05T00:57:30.686Z,51.53
2022-09-05T00:59:58.468Z,51.82
2022-09-05T01:02:27.601Z,51.52
2022-09-05T01:04:58.906Z,51.63
2022-09-05T01:07:37.992Z,51.60
2022-09-05T01:10:03.926Z,51.87
2022-09-05T01:12:19.957Z,51.98
2022-09-05T01:14:35.095Z,51.79
2022-09-05T01:17:05.100Z,52.03
2022-09-05T01:19:16.026Z,51.93
2022-09-05T01:21:29.818Z,51.92
2022-09-05T01:23:43.841Z,52.18
2022-09-05T01:26:23.149Z,52.13
2022-09-05T01:29:16.677Z,51.83
2022-09-05T01:31:30.332Z,52.07
2022-09-05T01:33:59.775Z,52.27
2022-09-05T01:36:20.628Z,52.19
2022-09-05T01:39:49.182Z,52.12
2022-09-05T01:41:36.464Z,52.58
2022-09-05T01:44:02.869Z,52.39
2022-09-05T01:46:22.845Z,52.66
2022-09-05T01:49:14.751Z,52.34
2022-09-05T01:51:46.162Z,52.56
2022-09-05T01:53:58.065Z,52.26
2022-09-05T01:56:25.897Z,52.57
2022-09-05T01:58:50.847Z,52.43
2022-09-05T02:01:30.103Z,52.41
2022-09-05T02:03:50.255Z,53.02
2022-09-05T02:06:33.443Z,53.14
2022-09-05T02:09:18.894Z,52.99
2022-09-05T02:11:41.673Z,53.43
2022-09-05T02:13:58.623Z,53.50
2022-09-05T02:16:07.687Z,53.48
2022-09-05T02:18:19.448Z,53.43
2022-09-05T02:20:31.878Z,53.14
2022-09-05T02:23:00.631Z,53.59
2022-09-05T02:25:32.132Z,53.20
2022-09-05T02:28:04.591Z,53.67
2022-09-05T02:30:17.364Z,53.06
2022-09-05T02:32:32.126Z,53.24
2022-09-05T02:34:53.472Z,53.10
2022-09-05T02:37:05.759Z,53.36
2022-09-05T02:45:01.648Z,53.11
2022-09-05T02:45:10.984Z,53.13
2022-09-05T02:45:17.796Z,53.19
2022-09-05T02:47:09.856Z,53.59
2022-09-05T02:51:04.184Z,53.28
2022-09-05T02:57:29.106Z,53.19
2022-09-05T02:57:41.358Z,53.51
2022-09-05T02:57:44.561Z,53.38
2022-09-05T03:00:03.215Z,53.51
2022-09-05T03:02:25.991Z,53.65
2022-09-05T03:05:04.481Z,53.69
2022-09-05T03:07:12.083Z,53.25
2022-09-05T03:09:29.861Z,53.75
2022-09-05T03:11:50.170Z,53.94
2022-09-05T03:14:13.403Z,53.60
2022-09-05T03:16:17.701Z,53.60
2022-09-05T03:18:47.265Z,54.15
2022-09-05T03:21:24.221Z,53.72
2022-09-05T03:23:52.200Z,53.86
2022-09-05T03:26:29.092Z,54.11
2022-09-05T03:29:01.766Z,54.00
2022-09-05T03:31:22.723Z,53.91
2022-09-05T03:33:41.359Z,53.88
2022-09-05T03:36:22.344Z,54.35
2022-09-05T03:38:30.090Z,54.30
2022-09-05T03:41:04.675Z,54.54
2022-09-05T03:43:40.971Z,54.71
2022-09-05T03:45:54.896Z,54.24
2022-09-05T03:48:38.021Z,54.62
2022-09-05T03:56:55.597Z,54.66
2022-09-05T03:57:22.451Z,55.05
2022-09-05T03:57:24.719Z,54.30
2022-09-05T03:59:30.799Z,54.88
2022-09-05T04:04:14.230Z,54.45
2022-09-05T04:08:07.315Z,54.60
2022-09-05T04:08:20.760Z,54.74
2022-09-05T04:09:50.472Z,54.57
2022-09-05T04:11:57.785Z,54.82
2022-09-05T04:14:10.707Z,55.07
2022-09-05T04:16:24.861Z,54.84
2022-09-05T04:18:39.426Z,54.99
2022-09-05T04:20:57.170Z,54.82
2022-09-05T04:23:34.677Z,55.01
2022-09-05T04:26:11.710Z,55.10
2022-09-05T04:28:41.382Z,55.12
2022-09-05T04:31:04.624Z,55.23
2022-09-05T04:33:17.568Z,55.41
2022-09-05T04:35:31.758Z,55.42
2022-09-05T04:37:48.436Z,55.40
2022-09-05T04:39:50.814Z,55.29
2022-09-05T04:42:06.664Z,55.89
2022-09-05T04:44:17.295Z,55.84
2022-09-05T04:46:28.868Z,55.83
2022-09-05T04:48:48.062Z,55.94
2022-09-05T04:51:12.817Z,55.92
2022-09-05T04:53:33.439Z,56.20
2022-09-05T04:55:50.659Z,56.36
2022-09-05T04:58:00.134Z,56.35
2022-09-05T05:05:58.267Z,56.15
2022-09-05T05:06:12.050Z,56.20
2022-09-05T05:06:19.738Z,56.64
2022-09-05T05:08:05.632Z,56.92
2022-09-05T05:13:28.288Z,56.62
2022-09-05T05:18:03.136Z,57.02
2022-09-05T05:18:15.158Z,56.55
2022-09-05T05:18:42.274Z,56.93
2022-09-05T05:20:42.106Z,56.64
2022-09-05T05:22:47.938Z,57.20
2022-09-05T05:24:57.341Z,57.06
2022-09-05T05:27:04.224Z,57.31
2022-09-05T05:29:38.863Z,57.72
2022-09-05T05:31:58.410Z,57.37
2022-09-05T05:34:24.209Z,57.96
2022-09-05T05:36:30.823Z,57.41
2022-09-05T05:38:49.174Z,57.96
2022-09-05T05:40:58.276Z,57.71
2022-09-05T05:43:25.902Z,58.08
2022-09-05T05:45:30.926Z,57.71
2022-09-05T05:47:42.748Z,57.99
2022-09-05T05:50:11.240Z,58.40
2022-09-05T05:52:37.993Z,58.37
2022-09-05T05:54:45.745Z,58.13
2022-09-05T05:57:10.075Z,58.56
2022-09-05T05:59:29.997Z,58.67
2022-09-05T06:01:40.367Z,58.72
2022-09-05T06:04:02.347Z,59.15
2022-09-05T06:06:10.147Z,58.65
2022-09-05T06:12:08.329Z,58.79
2022-09-05T06:14:51.850Z,59.39
2022-09-05T06:15:05.622Z,59.57
2022-09-05T06:16:55.121Z,59.32
2022-09-05T06:19:25.507Z,61.27
2022-09-05T06:22:11.745Z,61.62
2022-09-05T06:24:33.000Z,61.78
2022-09-05T06:26:49.210Z,62.41
2022-09-05T06:29:09.772Z,61.33
2022-09-05T06:31:30.732Z,61.38
2022-09-05T06:33:45.379Z,61.97
2022-09-05T06:36:10.325Z,61.67
2022-09-05T06:38:44.613Z,60.88
2022-09-05T06:41:15.174Z,60.76
2022-09-05T06:43:44.414Z,60.23
2022-09-05T06:46:05.937Z,59.67
2022-09-05T06:48:44.688Z,59.55
2022-09-05T06:51:08.524Z,59.21
2022-09-05T06:53:29.003Z,59.03
2022-09-05T06:55:59.909Z,58.45
2022-09-05T06:58:25.946Z,58.32
2022-09-05T07:00:48.539Z,57.90
2022-09-05T07:03:17.393Z,57.68
2022-09-05T07:05:44.506Z,57.59
2022-09-05T07:08:34.870Z,57.31
2022-09-05T07:10:38.770Z,57.19
2022-09-05T07:13:06.351Z,57.08
2022-09-05T07:15:36.082Z,56.80
2022-09-05T07:18:10.955Z,56.63
2022-09-05T07:20:18.333Z,56.03
2022-09-05T07:22:49.401Z,56.16
2022-09-05T07:24:54.462Z,55.96
2022-09-05T07:26:59.911Z,55.88
2022-09-05T07:29:09.884Z,55.56
2022-09-05T07:31:33.640Z,55.44
2022-09-05T07:33:42.695Z,55.39
2022-09-05T07:35:45.034Z,55.13
2022-09-05T07:37:54.385Z,55.06
2022-09-05T07:40:02.413Z,55.21
2022-09-05T07:42:27.454Z,54.88
2022-09-05T07:44:38.781Z,54.42
2022-09-05T07:46:42.221Z,54.51
2022-09-05T07:48:48.407Z,53.79
2022-09-05T07:56:42.552Z,53.70
2022-09-05T07:56:49.701Z,53.77
2022-09-05T07:57:03.159Z,53.42
2022-09-05T07:58:17.578Z,53.43
2022-09-05T08:00:26.907Z,53.01
2022-09-05T08:02:31.999Z,53.46
2022-09-05T08:04:36.429Z,52.97
2022-09-05T08:07:46.174Z,52.96
2022-09-05T08:10:05.316Z,52.55
2022-09-05T08:11:42.880Z,52.59
2022-09-05T08:14:43.694Z,52.23
2022-09-05T08:16:28.452Z,51.95
2022-09-05T08:18:42.824Z,52.00
2022-09-05T08:20:51.798Z,52.52
2022-09-05T08:23:06.316Z,51.99
2022-09-05T08:25:17.781Z,52.18
2022-09-05T08:27:28.196Z,52.40
2022-09-05T08:29:40.679Z,52.32
2022-09-05T08:31:52.680Z,52.26
2022-09-05T08:34:00.592Z,51.61
2022-09-05T08:36:17.835Z,51.51
2022-09-05T08:38:20.379Z,51.61
2022-09-05T08:40:33.180Z,51.48
2022-09-05T08:45:50.655Z,51.35
2022-09-05T08:46:42.890Z,51.03
2022-09-05T08:47:58.303Z,50.60
2022-09-05T08:50:15.365Z,50.45
2022-09-05T08:52:41.682Z,50.19
2022-09-05T08:54:54.893Z,50.09
2022-09-05T08:57:13.862Z,50.29
2022-09-05T08:59:32.869Z,49.63
2022-09-05T09:01:57.701Z,49.96
2022-09-05T09:04:40.008Z,49.19
2022-09-05T09:07:47.163Z,49.02
2022-09-05T09:09:55.150Z,49.40
2022-09-05T09:12:07.770Z,49.45
2022-09-05T09:14:46.842Z,49.06
2022-09-05T09:16:54.185Z,48.07
2022-09-05T09:19:11.130Z,48.12
2022-09-05T09:21:25.272Z,48.18
2022-09-05T09:23:51.212Z,47.71
2022-09-05T09:26:13.299Z,47.58
2022-09-05T09:28:50.345Z,47.43
2022-09-05T09:31:03.847Z,47.20
2022-09-05T09:33:11.631Z,47.20
2022-09-05T09:35:23.492Z,46.78
2022-09-05T09:37:59.794Z,46.75
2022-09-05T09:40:33.895Z,45.97
2022-09-05T09:42:47.756Z,45.80
2022-09-05T09:45:29.060Z,46.07
2022-09-05T09:47:55.140Z,45.35
2022-09-05T09:50:53.514Z,45.13
2022-09-05T09:53:13.128Z,45.43
2022-09-05T09:55:46.399Z,44.76
2022-09-05T09:58:00.905Z,44.38
2022-09-05T10:00:21.296Z,44.37
2022-09-05T10:06:30.183Z,43.48
2022-09-05T10:10:46.659Z,43.23
2022-09-05T10:10:53.340Z,42.49
2022-09-05T10:13:50.357Z,43.02
2022-09-05T10:16:27.560Z,42.31
2022-09-05T10:18:51.306Z,42.28
2022-09-05T10:21:27.264Z,42.03
2022-09-05T10:23:52.467Z,41.04
2022-09-05T10:26:24.770Z,40.86
2022-09-05T10:29:06.621Z,40.92
2022-09-05T10:33:01.070Z,41.24
2022-09-05T10:35:13.251Z,40.45
2022-09-05T10:36:33.710Z,40.57
2022-09-05T10:38:42.993Z,40.39
2022-09-05T10:41:19.710Z,40.25
2022-09-05T10:43:31.219Z,39.88
2022-09-05T10:45:57.218Z,39.54
2022-09-05T10:48:23.627Z,39.23
2022-09-05T10:50:29.270Z,39.17
2022-09-05T10:52:59.245Z,38.52
2022-09-05T10:55:22.005Z,38.53
2022-09-05T10:57:39.756Z,37.84
2022-09-05T11:02:16.374Z,38.36
2022-09-05T11:02:36.722Z,38.13
2022-09-05T11:05:22.607Z,36.79
2022-09-05T11:07:53.146Z,36.73
2022-09-05T11:10:17.500Z,36.97
2022-09-05T11:12:57.654Z,36.47
2022-09-05T11:15:02.910Z,36.83
2022-09-05T11:17:27.708Z,36.34
2022-09-05T11:19:56.380Z,36.46
2022-09-05T11:22:22.656Z,35.94
2022-09-05T11:24:31.285Z,36.29
2022-09-05T11:26:47.706Z,35.75
2022-09-05T11:29:14.197Z,36.35
2022-09-05T11:31:21.184Z,35.06
2022-09-05T11:38:05.811Z,34.90
2022-09-05T11:40:01.997Z,32.71
2022-09-05T11:40:07.554Z,33.90
2022-09-05T11:42:17.748Z,32.64
2022-09-05T11:44:26.963Z,33.32
2022-09-05T11:46:37.255Z,32.59
2022-09-05T11:49:13.102Z,32.02
2022-09-05T11:51:36.191Z,32.05
2022-09-05T11:54:09.881Z,31.88
2022-09-05T11:56:32.501Z,31.75
2022-09-05T11:59:04.863Z,32.19
2022-09-05T12:01:41.850Z,32.08
2022-09-05T12:04:16.957Z,32.18
2022-09-05T12:06:33.470Z,32.39
2022-09-05T12:08:52.934Z,32.22
2022-09-05T12:11:08.587Z,32.08
2022-09-05T12:13:37.803Z,32.84
2022-09-05T12:15:53.413Z,33.15
2022-09-05T12:18:34.973Z,33.04
2022-09-05T12:20:55.496Z,32.98
2022-09-05T12:23:25.391Z,33.68
2022-09-05T12:27:40.842Z,33.75
2022-09-05T12:29:34.775Z,34.13
2022-09-05T12:32:30.560Z,34.99
2022-09-05T12:36:07.463Z,35.25
2022-09-05T12:40:06.274Z,35.01
2022-09-05T12:41:37.035Z,34.28
2022-09-05T12:42:11.296Z,34.50
2022-09-05T12:44:44.507Z,34.86
2022-09-05T12:47:17.051Z,35.15
2022-09-05T12:49:35.097Z,34.99
2022-09-05T12:51:54.052Z,34.56
2022-09-05T12:54:04.308Z,34.79
2022-09-05T12:58:04.111Z,34.68
2022-09-05T13:02:56.873Z,34.83
2022-09-05T13:03:06.577Z,34.89
2022-09-05T13:04:20.310Z,34.91
2022-09-05T13:06:42.909Z,34.04
2022-09-05T13:08:52.843Z,33.71
2022-09-05T13:14:46.291Z,34.18
2022-09-05T13:14:52.377Z,34.23
2022-09-05T13:15:54.042Z,34.22
2022-09-05T13:18:25.183Z,33.55
2022-09-05T13:20:49.269Z,33.70
2022-09-05T13:22:53.314Z,33.74
2022-09-05T13:25:08.958Z,33.50
2022-09-05T13:27:17.283Z,33.79
2022-09-05T13:29:32.257Z,33.32
2022-09-05T13:38:04.234Z,33.73
2022-09-05T13:38:09.896Z,33.73
2022-09-05T13:38:12.826Z,33.61
2022-09-05T13:39:19.797Z,33.31
2022-09-05T13:41:34.746Z,33.20
2022-09-05T13:43:41.119Z,32.80
2022-09-05T13:46:17.378Z,31.43
2022-09-05T13:51:26.028Z,31.49
2022-09-05T13:53:36.805Z,31.48
2022-09-05T13:55:54.819Z,31.50
2022-09-05T13:58:11.924Z,31.38
2022-09-05T14:00:28.007Z,31.48
2022-09-05T14:05:50.377Z,29.97
2022-09-05T14:08:18.046Z,31.01
2022-09-05T14:10:47.114Z,30.79
2022-09-05T14:13:04.291Z,30.58
2022-09-05T14:15:32.034Z,30.46
2022-09-05T14:17:57.939Z,30.06
2022-09-05T14:20:18.915Z,31.13
2022-09-05T14:22:52.185Z,29.61
2022-09-05T14:24:58.750Z,30.73
2022-09-05T14:27:03.504Z,30.27
2022-09-05T14:29:17.034Z,29.76
2022-09-05T14:33:16.746Z,30.45
2022-09-05T14:37:49.104Z,30.86
2022-09-05T14:38:01.356Z,30.72
2022-09-05T14:38:48.990Z,30.95
2022-09-05T14:41:23.256Z,30.40
2022-09-05T14:43:47.532Z,30.46
2022-09-05T14:46:11.252Z,30.36
2022-09-05T14:48:35.026Z,30.31
2022-09-05T14:50:42.376Z,30.68
2022-09-05T14:55:29.122Z,30.43
2022-09-05T15:02:39.090Z,30.70
2022-09-05T15:02:44.859Z,30.17
2022-09-05T15:02:57.410Z,30.81
2022-09-05T15:05:11.192Z,30.94
2022-09-05T15:07:24.519Z,30.63
2022-09-05T15:11:21.676Z,31.23
2022-09-05T15:12:24.408Z,31.05
2022-09-05T15:14:12.005Z,31.39
2022-09-05T15:16:15.366Z,31.57
2022-09-05T15:18:25.400Z,31.29
2022-09-05T15:20:31.550Z,31.18
2022-09-05T15:22:37.697Z,31.41
2022-09-05T15:24:42.277Z,31.45
2022-09-05T15:27:03.030Z,30.86
2022-09-05T15:29:13.319Z,31.06
2022-09-05T15:31:19.184Z,31.29
2022-09-05T15:33:25.548Z,31.04
2022-09-05T15:35:40.954Z,31.33
2022-09-05T15:37:43.563Z,31.36
2022-09-05T15:39:45.273Z,31.24
2022-09-05T15:41:47.116Z,31.22
2022-09-05T15:43:53.949Z,31.21
2022-09-05T15:46:04.119Z,31.05
2022-09-05T15:48:12.500Z,31.43
2022-09-05T15:50:22.112Z,31.72
2022-09-05T15:52:29.152Z,31.58
2022-09-05T15:54:38.687Z,31.55
2022-09-05T15:56:48.313Z,31.56
2022-09-05T15:58:55.042Z,31.98
2022-09-05T16:00:59.877Z,31.55
2022-09-05T16:04:38.031Z,31.58
2022-09-05T16:10:34.320Z,32.19
2022-09-05T16:10:36.984Z,31.70
2022-09-05T16:10:37.156Z,31.80
2022-09-05T16:12:53.345Z,32.12
2022-09-05T16:15:19.889Z,31.80
2022-09-05T16:23:20.017Z,32.33
2022-09-05T16:23:24.443Z,32.61
2022-09-05T16:23:29.336Z,32.25
2022-09-05T16:24:59.212Z,32.66
2022-09-05T16:27:06.278Z,32.60
2022-09-05T16:29:10.937Z,32.71
2022-09-05T16:31:50.232Z,32.55
2022-09-05T16:33:52.202Z,32.53
2022-09-05T16:36:12.905Z,32.66
2022-09-05T16:38:48.982Z,32.47
2022-09-05T16:40:55.870Z,32.60
2022-09-05T16:43:02.460Z,32.67
2022-09-05T16:45:12.042Z,32.75
2022-09-05T16:47:25.580Z,33.33
2022-09-05T16:49:42.142Z,33.14
2022-09-05T16:51:52.838Z,32.93
2022-09-05T16:53:59.721Z,33.32
2022-09-05T16:56:15.214Z,33.38
2022-09-05T16:58:33.633Z,33.20
2022-09-05T17:00:48.624Z,32.99
2022-09-05T17:02:59.406Z,33.07
2022-09-05T17:05:22.683Z,33.60
2022-09-05T17:07:42.908Z,32.71
2022-09-05T17:09:45.973Z,33.37
2022-09-05T17:12:00.608Z,33.05
2022-09-05T17:14:10.806Z,33.14
2022-09-05T17:16:29.763Z,33.36
2022-09-05T17:18:35.425Z,33.34
2022-09-05T17:20:40.705Z,33.15
2022-09-05T17:29:20.566Z,33.24
2022-09-05T17:29:27.607Z,33.77
2022-09-05T17:29:47.328Z,33.74
2022-09-05T17:32:38.757Z,33.34
2022-09-05T17:35:18.077Z,33.23
2022-09-05T17:38:11.182Z,33.46
2022-09-05T17:40:38.471Z,33.92
2022-09-05T17:42:50.027Z,33.90
2022-09-05T17:45:07.512Z,33.78
2022-09-05T17:47:36.305Z,33.89
2022-09-05T17:49:45.250Z,33.56
2022-09-05T17:51:52.960Z,33.92
2022-09-05T17:54:00.718Z,33.77
2022-09-05T17:56:04.665Z,33.82
2022-09-05T17:58:49.282Z,33.68
2022-09-05T18:00:52.196Z,33.91
2022-09-05T18:02:56.679Z,33.59
2022-09-05T18:05:01.433Z,33.98
2022-09-05T18:07:25.754Z,34.25
2022-09-05T18:09:37.073Z,34.14
2022-09-05T18:12:02.063Z,34.50
2022-09-05T18:17:37.188Z,34.52
2022-09-05T18:19:33.545Z,34.73
2022-09-05T18:21:50.125Z,35.12
2022-09-05T18:24:07.867Z,35.04
2022-09-05T18:26:24.149Z,35.14
2022-09-05T18:28:57.288Z,35.23
2022-09-05T18:31:41.747Z,35.00
2022-09-05T18:34:13.276Z,35.42
2022-09-05T18:36:25.924Z,35.36
2022-09-05T18:38:51.782Z,35.15
2022-09-05T18:41:11.408Z,35.28
2022-09-05T18:43:31.935Z,35.32
2022-09-05T18:45:35.744Z,35.24
2022-09-05T18:47:51.138Z,35.58
2022-09-05T18:50:24.060Z,35.59
2022-09-05T18:52:25.099Z,35.43
2022-09-05T18:54:28.055Z,35.50
2022-09-05T18:57:09.712Z,35.63
2022-09-05T18:59:13.027Z,35.80
2022-09-05T19:01:22.725Z,35.76
2022-09-05T19:03:33.154Z,35.68
2022-09-05T19:05:48.972Z,35.94
2022-09-05T19:07:59.333Z,35.89
2022-09-05T19:10:35.697Z,36.12
2022-09-05T19:12:53.430Z,36.25
2022-09-05T19:14:58.869Z,36.20
2022-09-05T19:17:13.436Z,36.56
2022-09-05T19:19:24.772Z,36.40
2022-09-05T19:21:33.172Z,36.53
2022-09-05T19:23:51.343Z,36.79
2022-09-05T19:26:09.959Z,36.86
2022-09-05T19:36:56.175Z,36.91
2022-09-05T19:36:59.407Z,36.80
2022-09-05T19:37:03.786Z,37.13
2022-09-05T19:37:15.101Z,36.88
2022-09-05T19:38:13.301Z,37.36
2022-09-05T19:47:27.603Z,37.20
2022-09-05T19:47:29.535Z,37.52
2022-09-05T19:47:37.379Z,37.16
2022-09-05T19:48:04.104Z,37.80
2022-09-05T19:50:01.253Z,37.96
2022-09-05T19:52:16.467Z,37.66
2022-09-05T19:54:26.830Z,37.85
2022-09-05T19:56:40.598Z,37.68
2022-09-05T19:58:42.357Z,37.65
2022-09-05T20:00:50.402Z,38.05
2022-09-05T20:03:03.261Z,37.98
2022-09-05T20:05:08.091Z,37.77
2022-09-05T20:07:18.897Z,38.23
2022-09-05T20:09:25.431Z,38.21
2022-09-05T20:11:37.353Z,38.03
2022-09-05T20:13:47.799Z,38.10
2022-09-05T20:15:50.344Z,38.63
2022-09-05T20:17:53.902Z,38.25
2022-09-05T20:20:24.759Z,38.65
2022-09-05T20:22:49.639Z,38.51
2022-09-05T20:24:51.778Z,38.57
2022-09-05T20:26:54.239Z,38.36
2022-09-05T20:29:11.082Z,38.34
2022-09-05T20:31:27.784Z,38.81
2022-09-05T20:33:39.752Z,38.43
2022-09-05T20:43:07.989Z,38.62
2022-09-05T20:43:20.810Z,39.13
2022-09-05T20:43:21.746Z,38.93
2022-09-05T20:43:37.473Z,38.75
2022-09-05T20:46:22.707Z,38.78
2022-09-05T20:54:09.537Z,38.98
2022-09-05T20:54:19.241Z,39.26
2022-09-05T20:54:24.430Z,39.23
2022-09-05T20:55:40.211Z,39.73
2022-09-05T20:57:43.732Z,39.26
2022-09-05T20:59:48.400Z,39.28
2022-09-05T21:02:04.864Z,39.60
2022-09-05T21:04:06.803Z,39.38
2022-09-05T21:06:25.726Z,39.34
2022-09-05T21:08:35.327Z,39.64
2022-09-05T21:10:56.063Z,39.70
2022-09-05T21:12:59.014Z,39.82
2022-09-05T21:15:22.907Z,40.05
2022-09-05T21:17:31.395Z,39.84
2022-09-05T21:19:35.402Z,39.68
2022-09-05T21:21:37.099Z,39.74
2022-09-05T21:23:38.831Z,39.77
2022-09-05T21:26:00.574Z,39.83
2022-09-05T21:28:22.837Z,40.04
2022-09-05T21:30:40.300Z,39.66
2022-09-05T21:32:42.129Z,39.75
2022-09-05T21:34:55.172Z,39.76
2022-09-05T21:37:07.332Z,39.95
2022-09-05T21:39:09.735Z,39.56
2022-09-05T21:41:12.811Z,39.73
2022-09-05T21:47:35.934Z,40.15
2022-09-05T21:47:46.103Z,39.75
2022-09-05T21:48:05.234Z,40.24
2022-09-05T21:50:10.357Z,39.59
2022-09-05T21:52:22.237Z,39.93
2022-09-05T21:59:16.795Z,40.19
2022-09-05T21:59:25.235Z,39.86
2022-09-05T21:59:41.542Z,40.29
2022-09-05T22:01:53.169Z,40.41
2022-09-05T22:03:58.262Z,40.50
2022-09-05T22:06:03.942Z,40.37
2022-09-05T22:08:10.271Z,40.33
2022-09-05T22:10:12.113Z,40.77
2022-09-05T22:12:29.948Z,40.37
2022-09-05T22:14:35.370Z,40.96
2022-09-05T22:16:41.351Z,40.47
2022-09-05T22:18:49.763Z,40.78
2022-09-05T22:21:24.662Z,40.74
2022-09-05T22:23:13.882Z,40.77
2022-09-05T22:25:27.379Z,40.76
2022-09-05T22:27:31.596Z,40.87
2022-09-05T22:29:35.387Z,40.87
2022-09-05T22:31:37.021Z,40.72
2022-09-05T22:33:38.592Z,41.08
2022-09-05T22:35:40.779Z,40.80
2022-09-05T22:37:44.582Z,40.59
2022-09-05T22:39:49.376Z,40.77
2022-09-05T22:41:51.010Z,40.84
2022-09-05T22:43:52.555Z,41.05
2022-09-05T22:45:59.719Z,40.86
2022-09-05T22:48:10.313Z,41.09
2022-09-05T22:50:11.886Z,41.20
2022-09-05T22:52:16.213Z,41.24
2022-09-05T22:54:17.781Z,41.36
2022-09-05T22:56:33.992Z,41.32
2022-09-05T22:58:43.465Z,40.88
2022-09-05T23:00:46.340Z,41.22
2022-09-05T23:02:52.166Z,41.23
2022-09-05T23:04:53.978Z,41.25
2022-09-05T23:06:58.101Z,41.33
2022-09-05T23:08:59.645Z,41.42
2022-09-05T23:11:13.446Z,41.58
2022-09-05T23:13:15.062Z,41.50
2022-09-05T23:15:20.191Z,41.78
2022-09-05T23:17:21.838Z,41.82
2022-09-05T23:19:23.413Z,41.79
2022-09-05T23:21:25.189Z,41.84
2022-09-05T23:23:26.676Z,41.87
2022-09-05T23:25:28.264Z,42.07
2022-09-05T23:27:34.981Z,42.13
2022-09-05T23:29:36.500Z,42.01
2022-09-05T23:31:38.166Z,41.99
2022-09-05T23:33:41.879Z,42.00
2022-09-05T23:35:43.512Z,42.24
2022-09-05T23:37:46.332Z,42.17
2022-09-05T23:39:47.915Z,42.15
2022-09-05T23:41:49.471Z,42.14
2022-09-05T23:43:51.041Z,42.18
2022-09-05T23:45:52.987Z,42.16
2022-09-05T23:47:57.658Z,42.04
2022-09-05T23:49:59.292Z,42.36
2022-09-05T23:52:00.878Z,42.15
2022-09-05T23:54:02.451Z,42.42
2022-09-05T23:56:06.615Z,42.41
2022-09-05T23:58:11.589Z,42.54
